Marsland, Nebraska
Current Conditions -  °F | °C
As of 9:33 AM on Wednesday 26 Nov 2014 (Local Time) from KCDR Reporting Station
Haze Haze  
Wind Chill:   Ceiling: 3400
Heat Index:   Visibility: 4mi
Dew Point: -6°   Wind: 3mph
Humidity: 47%   Direction: 120°ESE
Pressure: 30.27"   Gusts: NA
Location:  42.44°N, 103.3°W
Report Text: KCDR 261633Z AUTO 12003KT 4SM HZ SCT023 BKN034 OVC075 04/M06 A3027 RMK AO2 SNB16E29 P0000 T00441061
Loading
Personal Weather Stations






























Interactive Weather Map New forecast layout! Learn more

10-Day Weather Forecast

Advertisements
Track Severe Weather on mobile